Time;durP1;ratioP1;P1;durP2;ratioP2;P2;SDS_P1;SDS_P2;PMS_P1;PMS_P2;Temp;Humidity;BMP_temperature;BMP_pressure;BME280_temperature;BME280_humidity;BME280_pressure;Samples;Min_cycle;Max_cycle;Signal;HPM_P1;HPM_P2
2022/06/14 00:01:43;;;;;;;3.78;2.15;;;;;;;17.93;49.35;101719.44;5031628;28;20403;-78
2022/06/14 00:04:12;;;;;;;2.90;1.90;;;;;;;18.03;48.80;101716.13;5030465;28;20120;-77
2022/06/14 00:06:40;;;;;;;3.78;1.77;;;;;;;18.24;48.25;101714.66;5032361;27;20570;-76
2022/06/14 00:09:09;;;;;;;6.72;1.70;;;;;;;18.35;49.31;101718.28;5030284;28;20089;-77
2022/06/14 00:11:40;;;;;;;2.80;1.67;;;;;;;18.52;47.04;101715.88;5031242;28;20115;-77
2022/06/14 00:14:11;;;;;;;2.92;1.83;;;;;;;18.59;47.23;101723.81;5029184;28;20058;-76
2022/06/14 00:16:40;;;;;;;3.53;1.80;;;;;;;18.77;48.10;101720.56;5031115;28;20566;-77
2022/06/14 00:19:09;;;;;;;2.88;1.70;;;;;;;18.94;47.77;101720.72;5029562;28;20045;-76
2022/06/14 00:21:38;;;;;;;2.60;1.63;;;;;;;18.99;48.72;101734.78;5020562;28;20046;-77
2022/06/14 00:24:07;;;;;;;3.08;1.63;;;;;;;18.89;47.12;101732.91;5027681;28;20060;-75
2022/06/14 00:26:36;;;;;;;3.03;1.73;;;;;;;18.86;46.21;101732.03;5028983;28;20053;-77
2022/06/14 00:29:06;;;;;;;2.45;1.42;;;;;;;18.86;46.27;101732.91;5028568;28;20041;-78
2022/06/14 00:31:35;;;;;;;4.43;1.80;;;;;;;18.81;47.33;101730.22;5031046;28;20037;-76
2022/06/14 00:34:03;;;;;;;2.53;1.70;;;;;;;18.92;45.06;101732.06;5029126;28;20073;-76
2022/06/14 00:36:34;;;;;;;2.45;1.70;;;;;;;19.08;45.71;101728.78;5030087;28;20057;-75
2022/06/14 00:39:05;;;;;;;2.60;1.60;;;;;;;18.99;44.91;101739.16;5029580;28;20056;-75
2022/06/14 00:41:39;;;;;;;3.28;1.50;;;;;;;18.86;45.27;101730.28;5030722;28;20041;-76
2022/06/14 00:44:14;;;;;;;3.03;2.00;;;;;;;18.76;45.24;101731.91;5029144;28;20937;-77
2022/06/14 00:46:50;;;;;;;3.03;1.83;;;;;;;18.65;45.10;101730.00;5031646;28;20049;-76
2022/06/14 00:49:23;;;;;;;2.63;1.58;;;;;;;18.55;46.53;101737.72;5026796;28;20526;-76
2022/06/14 00:51:55;;;;;;;2.45;1.60;;;;;;;18.38;44.76;101729.66;5029500;28;20124;-76
2022/06/14 00:54:27;;;;;;;3.13;1.80;;;;;;;18.24;44.65;101733.00;5026450;28;20060;-76
2022/06/14 00:57:02;;;;;;;2.08;1.58;;;;;;;18.10;45.68;101735.41;5025311;28;20046;-76
2022/06/14 00:59:38;;;;;;;3.08;1.63;;;;;;;17.93;45.73;101737.78;5028820;28;20111;-75
2022/06/14 01:02:14;;;;;;;3.22;1.50;;;;;;;17.75;46.93;101733.09;5029571;28;20115;-75
2022/06/14 01:04:44;;;;;;;4.57;2.17;;;;;;;17.61;47.56;101725.03;5029119;28;21411;-76
2022/06/14 01:07:17;;;;;;;2.63;1.70;;;;;;;17.49;47.45;101733.56;5029280;28;20128;-76
2022/06/14 01:09:51;;;;;;;3.22;1.55;;;;;;;17.36;47.67;101731.59;5029836;28;20111;-77
2022/06/14 01:12:21;;;;;;;6.40;2.00;;;;;;;17.30;48.60;101736.75;5018580;28;20053;-77
2022/06/14 01:14:59;;;;;;;5.25;1.85;;;;;;;17.22;49.91;101736.59;5018889;28;20054;-75
2022/06/14 01:17:28;;;;;;;2.90;1.75;;;;;;;17.16;50.01;101734.75;5028583;28;20045;-76
2022/06/14 01:19:57;;;;;;;3.35;1.40;;;;;;;17.10;50.51;101741.59;5028965;28;20122;-77
2022/06/14 01:22:32;;;;;;;3.08;1.80;;;;;;;17.02;50.14;101737.94;5029301;28;20188;-78
2022/06/14 01:25:02;;;;;;;3.65;1.70;;;;;;;16.95;50.28;101735.25;5029151;28;20041;-75
2022/06/14 01:27:33;;;;;;;2.15;1.58;;;;;;;17.06;50.43;101737.16;5029692;28;20503;-76
2022/06/14 01:30:07;;;;;;;2.63;1.35;;;;;;;17.08;51.09;101740.69;5029515;28;20069;-76
2022/06/14 01:32:43;;;;;;;1.67;1.10;;;;;;;17.07;50.94;101742.44;5028731;28;20045;-76
2022/06/14 01:35:18;;;;;;;4.38;1.38;;;;;;;17.05;50.93;101745.88;5028506;28;20121;-75
2022/06/14 01:37:50;;;;;;;2.95;0.90;;;;;;;17.13;50.64;101742.56;5029162;28;20710;-76
2022/06/14 01:40:20;;;;;;;1.77;0.90;;;;;;;17.26;51.30;101745.38;5029345;28;20486;-76
2022/06/14 01:43:16;;;;;;;1.48;0.68;;;;;;;17.42;51.35;101759.59;5030292;28;20132;-77
2022/06/14 01:45:57;;;;;;;2.22;0.75;;;;;;;17.54;50.37;101763.31;5027818;28;20132;-76
2022/06/14 01:48:31;;;;;;;1.52;0.60;;;;;;;17.54;50.21;101757.19;5023034;28;20771;-75
2022/06/14 01:54:04;;;;;;;0.80;0.50;;;;;;;17.39;49.16;101763.06;5025864;28;20159;-74
2022/06/14 01:56:42;;;;;;;1.35;0.75;;;;;;;17.30;49.47;101770.75;5022203;28;20120;-74
2022/06/14 01:59:18;;;;;;;0.90;0.60;;;;;;;17.20;49.91;101772.28;5028258;28;20558;-75
2022/06/14 02:01:59;;;;;;;1.85;0.60;;;;;;;17.03;49.93;101763.25;5028397;28;20050;-74
2022/06/14 02:04:39;;;;;;;0.70;0.50;;;;;;;16.99;51.46;101771.91;5027273;28;20053;-75
2022/06/14 02:07:17;;;;;;;1.75;0.80;;;;;;;16.88;51.96;101775.19;5027705;28;20107;-74
2022/06/14 02:09:58;;;;;;;0.95;0.50;;;;;;;16.81;51.67;101777.63;5026996;28;20049;-76
2022/06/14 02:12:35;;;;;;;1.65;0.60;;;;;;;16.74;50.50;101774.88;5028928;28;20104;-76
2022/06/14 02:15:11;;;;;;;1.30;0.50;;;;;;;16.68;52.70;101766.91;5027882;28;20078;-76
2022/06/14 02:17:49;;;;;;;1.02;0.60;;;;;;;16.66;53.00;101759.91;5028529;28;20045;-76
2022/06/14 02:20:22;;;;;;;1.17;0.50;;;;;;;16.63;54.05;101770.25;5013551;28;20053;-75
2022/06/14 02:22:55;;;;;;;1.63;0.50;;;;;;;16.59;53.28;101761.50;5028322;28;20045;-77
2022/06/14 02:25:31;;;;;;;2.45;0.90;;;;;;;16.56;53.23;101769.28;5018668;28;20116;-77
2022/06/14 02:28:04;;;;;;;1.20;0.60;;;;;;;16.50;53.78;101767.41;5028072;28;20049;-77
2022/06/14 02:30:39;;;;;;;1.08;0.65;;;;;;;16.42;54.85;101771.56;5021999;28;20041;-77
2022/06/14 02:33:13;;;;;;;1.20;0.57;;;;;;;16.37;55.90;101775.81;5029962;28;20112;-77
2022/06/14 02:35:48;;;;;;;1.45;0.60;;;;;;;16.30;55.28;101769.56;5020714;28;20112;-77
2022/06/14 02:38:21;;;;;;;1.10;0.50;;;;;;;16.27;56.33;101769.50;5027367;28;20160;-77
2022/06/14 02:40:56;;;;;;;2.53;0.98;;;;;;;16.22;55.65;101765.06;5028677;28;20074;-79
2022/06/14 02:43:30;;;;;;;1.67;0.80;;;;;;;16.17;56.71;101771.88;5019290;28;20103;-78
2022/06/14 02:46:02;;;;;;;2.08;1.00;;;;;;;16.09;56.77;101774.31;5027384;28;20041;-80
2022/06/14 02:48:36;;;;;;;3.13;0.80;;;;;;;16.04;56.80;101766.38;5021034;28;20045;-79
2022/06/14 02:51:10;;;;;;;2.05;0.95;;;;;;;15.99;56.51;101774.94;5024712;28;20684;-80
2022/06/14 02:53:45;;;;;;;2.97;1.15;;;;;;;15.94;55.74;101769.59;5019973;28;20056;-82
2022/06/14 02:56:20;;;;;;;1.50;0.70;;;;;;;15.93;55.73;101773.06;5025921;28;20080;-79
2022/06/14 02:58:55;;;;;;;1.33;0.63;;;;;;;15.89;55.92;101779.94;5026007;28;20496;-81
2022/06/14 03:01:28;;;;;;;3.97;1.20;;;;;;;15.79;56.15;101771.88;5028169;28;20038;-78
2022/06/14 03:04:01;;;;;;;2.15;0.60;;;;;;;15.69;55.61;101778.53;5029222;28;20100;-81
2022/06/14 03:06:35;;;;;;;6.75;1.27;;;;;;;15.62;55.71;101782.75;5033941;27;20095;-80
2022/06/14 03:09:07;;;;;;;1.70;0.80;;;;;;;15.59;56.48;101798.31;5031808;28;20045;-75
2022/06/14 03:11:51;;;;;;;0.88;0.60;;;;;;;15.53;56.76;101790.34;5031365;28;20484;-79
2022/06/14 03:14:29;;;;;;;1.20;0.68;;;;;;;15.49;57.75;101796.31;5029321;28;20050;-76
2022/06/14 03:17:14;;;;;;;1.65;0.52;;;;;;;15.42;57.48;101797.00;5023300;28;20067;-78
2022/06/14 03:19:51;;;;;;;2.85;0.70;;;;;;;15.39;58.11;101789.97;5031114;28;20048;-79
2022/06/14 03:22:31;;;;;;;1.75;0.80;;;;;;;15.35;57.50;101803.78;5032374;28;20057;-78
2022/06/14 03:25:04;;;;;;;1.83;0.73;;;;;;;15.29;57.10;101791.44;5026654;28;20049;-78
2022/06/14 03:27:37;;;;;;;3.67;0.63;;;;;;;15.25;57.13;101792.19;5032081;28;20046;-76
2022/06/14 03:30:11;;;;;;;1.10;0.65;;;;;;;15.18;59.51;101790.25;5030278;28;20037;-78
2022/06/14 03:32:46;;;;;;;1.60;0.45;;;;;;;15.07;61.06;101786.47;5031831;28;20400;-81
2022/06/14 03:35:22;;;;;;;2.38;0.70;;;;;;;14.92;61.14;101778.25;5032070;28;20115;-77
2022/06/14 03:37:58;;;;;;;2.17;0.60;;;;;;;14.81;62.63;101781.44;5029645;28;20049;-81
2022/06/14 03:40:26;;;;;;;0.73;0.40;;;;;;;14.78;61.99;101775.25;5026814;28;20056;-78
2022/06/14 03:42:57;;;;;;;2.45;0.52;;;;;;;14.77;61.59;101781.28;5031142;28;20065;-78
2022/06/14 03:45:34;;;;;;;2.47;0.75;;;;;;;14.72;61.62;101783.78;5030467;28;20132;-77
2022/06/14 03:48:05;;;;;;;2.17;0.75;;;;;;;14.70;60.39;101785.44;5029310;28;20049;-76
2022/06/14 03:50:42;;;;;;;0.70;0.33;;;;;;;14.69;60.33;101791.50;5028661;28;20479;-78
2022/06/14 03:53:24;;;;;;;1.20;0.50;;;;;;;14.63;59.87;101793.91;5026515;28;20116;-77
2022/06/14 03:56:07;;;;;;;1.67;0.73;;;;;;;14.63;59.70;101799.13;5027672;28;20124;-76
2022/06/14 03:58:52;;;;;;;1.25;0.85;;;;;;;14.58;60.07;101793.78;5030914;28;20088;-78
2022/06/14 04:01:26;;;;;;;1.23;0.82;;;;;;;14.58;58.93;101798.13;5030339;28;20115;-81
2022/06/14 04:04:09;;;;;;;1.15;0.65;;;;;;;14.53;58.75;101791.88;5030331;28;20574;-79
2022/06/14 04:06:52;;;;;;;1.08;0.60;;;;;;;14.52;59.08;101790.09;5031184;28;20113;-79
2022/06/14 04:09:33;;;;;;;1.45;0.85;;;;;;;14.51;59.31;101796.13;5023863;28;20492;-80
2022/06/14 04:12:10;;;;;;;2.15;0.68;;;;;;;14.48;58.47;101786.53;5025731;28;20125;-80
2022/06/14 04:14:53;;;;;;;0.93;0.60;;;;;;;14.46;58.49;101793.41;5028197;28;20053;-78
2022/06/14 04:17:26;;;;;;;1.65;0.88;;;;;;;14.44;58.57;101798.56;5029423;28;20136;-78
2022/06/14 04:20:08;;;;;;;1.92;1.00;;;;;;;14.41;58.70;101805.41;5030860;28;20765;-77
2022/06/14 04:22:48;;;;;;;1.38;0.60;;;;;;;14.37;59.73;101796.59;5027752;28;20553;-79
2022/06/14 04:25:27;;;;;;;2.78;0.77;;;;;;;14.37;58.97;101798.31;5031764;28;20045;-78
2022/06/14 04:28:02;;;;;;;1.45;0.35;;;;;;;14.37;60.35;101807.00;5030416;28;20049;-79
2022/06/14 04:30:40;;;;;;;2.22;0.65;;;;;;;14.39;59.57;101814.88;5019657;28;20038;-80
2022/06/14 04:33:14;;;;;;;2.42;0.50;;;;;;;14.37;60.20;101803.53;5028813;28;20045;-78
2022/06/14 04:35:48;;;;;;;3.05;0.60;;;;;;;14.33;60.23;101810.34;5016485;28;20100;-78
2022/06/14 04:38:22;;;;;;;1.08;0.77;;;;;;;14.30;60.08;101812.88;5028730;28;20084;-79
2022/06/14 04:40:54;;;;;;;1.52;0.65;;;;;;;14.25;60.83;101806.66;5021916;28;20049;-79
2022/06/14 04:43:31;;;;;;;0.70;0.50;;;;;;;14.16;61.82;101803.75;5029725;28;20472;-78
2022/06/14 04:46:08;;;;;;;3.15;0.60;;;;;;;14.06;62.33;101804.28;5025229;28;20111;-80
2022/06/14 04:48:41;;;;;;;0.70;0.43;;;;;;;13.97;62.96;101800.56;5029677;28;20050;-79
2022/06/14 04:51:17;;;;;;;1.13;0.50;;;;;;;13.95;64.21;101796.13;5030466;28;20048;-80
2022/06/14 04:53:51;;;;;;;1.50;0.73;;;;;;;13.88;64.95;101789.88;5024899;28;20489;-79
2022/06/14 04:56:25;;;;;;;1.20;0.70;;;;;;;13.87;66.33;101793.28;5019585;28;20033;-82
2022/06/14 04:58:58;;;;;;;1.15;0.60;;;;;;;13.82;67.86;101798.34;5027705;28;20042;-80
2022/06/14 05:01:34;;;;;;;0.52;0.35;;;;;;;13.74;68.36;101798.91;5029908;28;20362;-79
2022/06/14 05:04:08;;;;;;;1.65;0.88;;;;;;;13.66;68.61;101809.06;5029648;28;20485;-77
2022/06/14 05:06:41;;;;;;;2.67;0.50;;;;;;;13.59;68.76;101801.91;5031053;28;20554;-79
2022/06/14 05:09:16;;;;;;;1.85;0.63;;;;;;;13.57;69.11;101801.84;5010939;28;20057;-78
2022/06/14 05:11:52;;;;;;;1.00;0.63;;;;;;;13.55;68.80;101800.91;5007421;28;20401;-78
2022/06/14 05:14:25;;;;;;;1.02;0.63;;;;;;;13.52;68.88;101800.81;5004979;28;20050;-80
2022/06/14 05:17:01;;;;;;;3.10;0.55;;;;;;;13.42;69.68;101803.91;4998927;28;20152;-78
2022/06/14 05:19:36;;;;;;;0.88;0.60;;;;;;;13.36;69.95;101803.72;5008601;28;20503;-78
2022/06/14 05:22:10;;;;;;;2.28;0.40;;;;;;;13.33;69.92;101803.59;4993903;28;20058;-77
2022/06/14 05:24:40;;;;;;;1.95;0.75;;;;;;;13.31;70.40;101802.66;5004082;28;20360;-79
2022/06/14 05:27:34;;;;;;;1.90;0.65;;;;;;;13.25;71.40;101802.41;5009799;28;20060;-78
2022/06/14 05:30:08;;;;;;;1.27;0.80;;;;;;;13.17;71.88;101800.44;4990551;28;20088;-80
2022/06/14 05:32:46;;;;;;;2.25;0.50;;;;;;;13.13;72.89;101801.16;5003807;28;20050;-78
2022/06/14 05:35:29;;;;;;;3.30;0.60;;;;;;;13.05;73.15;101799.97;5005524;28;20081;-77
2022/06/14 05:38:09;;;;;;;2.95;0.50;;;;;;;13.16;72.80;101806.44;5006532;28;20130;-79
2022/06/14 05:40:42;;;;;;;6.25;0.80;;;;;;;13.14;73.69;101808.09;5003151;28;20128;-78
2022/06/14 05:43:16;;;;;;;0.80;0.47;;;;;;;13.04;73.90;101794.75;5008769;28;20050;-78
2022/06/14 05:45:48;;;;;;;0.75;0.40;;;;;;;13.04;74.80;101807.72;5009469;28;20057;-78
2022/06/14 05:48:25;;;;;;;1.50;0.52;;;;;;;12.94;74.57;101804.81;5007381;28;20119;-78
2022/06/14 05:50:57;;;;;;;0.40;0.40;;;;;;;12.90;75.21;101809.84;5006980;28;20061;-81
2022/06/14 05:53:31;;;;;;;1.52;0.40;;;;;;;12.87;76.00;101799.31;5008806;28;20050;-79
2022/06/14 05:56:08;;;;;;;1.00;0.40;;;;;;;12.77;77.90;101806.75;5009212;28;20093;-78
2022/06/14 05:58:44;;;;;;;1.10;0.40;;;;;;;12.68;77.05;101806.41;5009219;28;20507;-79
2022/06/14 06:01:16;;;;;;;1.90;0.45;;;;;;;12.67;77.71;101808.97;5008481;28;20136;-79
2022/06/14 06:03:48;;;;;;;;;;;;;;;12.61;79.31;101804.41;5007175;28;20054;-78
2022/06/14 06:06:20;;;;;;;0.65;0.45;;;;;;;12.53;79.71;101817.13;5008715;28;19965;-78
2022/06/14 06:08:53;;;;;;;6.95;0.60;;;;;;;12.50;80.29;101816.09;5029931;28;20544;-78
2022/06/14 06:11:27;;;;;;;2.03;0.65;;;;;;;12.50;80.31;101816.09;5016472;28;20049;-76
2022/06/14 06:14:02;;;;;;;1.98;0.60;;;;;;;12.51;79.56;101808.38;5032278;28;20081;-76
2022/06/14 06:16:35;;;;;;;1.77;0.65;;;;;;;12.52;79.76;101801.47;5028652;28;20467;-76
2022/06/14 06:19:13;;;;;;;5.38;0.93;;;;;;;12.47;80.80;101811.69;5028359;28;20057;-76
2022/06/14 06:21:47;;;;;;;1.05;0.60;;;;;;;12.38;81.66;101805.25;5026877;28;20052;-76
2022/06/14 06:24:21;;;;;;;1.17;0.65;;;;;;;12.32;82.91;101801.59;5028552;28;20647;-77
2022/06/14 06:26:57;;;;;;;3.40;0.70;;;;;;;12.32;82.64;101811.97;5021532;28;20050;-75
2022/06/14 06:29:33;;;;;;;1.40;0.57;;;;;;;12.30;83.28;101816.22;5027574;28;20045;-75
2022/06/14 06:32:04;;;;;;;3.40;0.60;;;;;;;12.28;83.51;101823.06;5022427;28;20515;-76
2022/06/14 06:34:35;;;;;;;0.98;0.57;;;;;;;12.26;83.75;101819.53;5023881;28;20045;-76
2022/06/14 06:37:09;;;;;;;1.42;0.45;;;;;;;12.25;84.27;101824.63;5023429;28;20757;-76
2022/06/14 06:39:46;;;;;;;2.20;0.63;;;;;;;12.23;85.07;101827.19;5028215;28;20483;-75
2022/06/14 06:42:21;;;;;;;2.63;0.82;;;;;;;12.23;84.93;101821.09;5027193;28;20068;-76
2022/06/14 06:44:56;;;;;;;1.08;0.75;;;;;;;12.25;84.77;101822.03;5028985;28;20053;-76
2022/06/14 06:47:38;;;;;;;1.60;0.60;;;;;;;12.22;84.55;101819.34;5032973;28;20053;-76
2022/06/14 06:50:22;;;;;;;1.67;1.00;;;;;;;12.24;84.98;101818.56;5028986;28;20041;-76
2022/06/14 06:53:12;;;;;;;0.95;0.45;;;;;;;12.25;85.12;101819.44;5031774;28;20054;-75
2022/06/14 06:55:48;;;;;;;1.25;0.40;;;;;;;12.24;85.08;101823.75;5031548;28;20050;-76
2022/06/14 06:58:25;;;;;;;4.95;1.00;;;;;;;12.24;84.69;101818.56;5030283;28;20045;-76
2022/06/14 07:00:57;;;;;;;1.05;0.47;;;;;;;12.23;84.90;101822.00;5032228;28;20045;-75
2022/06/14 07:03:38;;;;;;;1.77;0.88;;;;;;;12.23;85.15;101832.38;5026446;28;20103;-75
2022/06/14 07:06:15;;;;;;;1.13;0.68;;;;;;;12.16;86.08;101809.59;5023656;28;20454;-75
2022/06/14 07:08:51;;;;;;;1.38;1.27;;;;;;;12.15;87.10;101807.81;5034501;28;20655;-75
2022/06/14 07:11:23;;;;;;;1.75;0.90;;;;;;;12.07;87.51;101794.56;5031432;28;20565;-76
2022/06/14 07:13:57;;;;;;;4.63;1.17;;;;;;;12.08;87.05;101801.50;5032391;28;20495;-76
2022/06/14 07:16:30;;;;;;;2.60;0.95;;;;;;;12.11;86.90;101811.13;5027782;28;20128;-76
2022/06/14 07:19:17;;;;;;;1.70;1.00;;;;;;;12.10;86.25;101809.34;5031728;28;20053;-76
2022/06/14 07:21:54;;;;;;;2.17;1.00;;;;;;;12.07;86.04;101798.84;5030427;28;20591;-75
2022/06/14 07:24:29;;;;;;;1.98;1.17;;;;;;;12.09;86.01;101802.38;5027362;28;20301;-75
2022/06/14 07:27:04;;;;;;;3.45;1.38;;;;;;;12.04;85.93;101799.59;5032542;28;20086;-75
2022/06/14 07:29:36;;;;;;;4.88;1.00;;;;;;;12.05;86.46;101797.88;5030911;28;20045;-76
2022/06/14 07:32:11;;;;;;;3.55;1.35;;;;;;;12.04;86.44;101790.94;5031847;28;20552;-75
2022/06/14 07:34:41;;;;;;;3.65;1.27;;;;;;;12.04;86.25;101789.22;5025385;28;20411;-75
2022/06/14 07:37:17;;;;;;;3.35;1.80;;;;;;;12.05;85.99;101788.44;5026696;28;20108;-76
2022/06/14 07:39:55;;;;;;;2.38;1.13;;;;;;;12.02;86.00;101796.06;5031379;28;20045;-76
2022/06/14 07:42:32;;;;;;;6.72;1.42;;;;;;;12.04;86.99;101796.13;5029857;28;20053;-74
2022/06/14 07:45:08;;;;;;;3.03;1.33;;;;;;;12.02;86.85;101796.06;5030775;28;20056;-76
2022/06/14 07:47:42;;;;;;;4.35;1.20;;;;;;;12.02;87.27;101795.19;5029888;28;20042;-76
2022/06/14 07:50:16;;;;;;;3.05;1.67;;;;;;;12.01;86.83;101798.63;5031810;28;20045;-75
2022/06/14 07:52:49;;;;;;;6.63;1.98;;;;;;;12.00;87.36;101786.44;5031194;28;20057;-76
2022/06/14 07:55:21;;;;;;;;;;;;;;;12.01;87.22;101788.25;5025691;28;20442;-76
2022/06/14 07:57:54;;;;;;;2.83;1.60;;;;;;;12.02;88.08;101797.78;5026029;28;19932;-76
2022/06/14 08:03:21;;;;;;;3.42;1.20;;;;;;;12.07;88.40;101796.25;5022463;28;20439;-76
2022/06/14 08:05:52;;;;;;;3.75;1.40;;;;;;;12.06;89.20;101797.09;5031119;28;20045;-75
2022/06/14 08:08:28;;;;;;;2.22;1.25;;;;;;;12.04;89.75;101786.63;5034933;27;20057;-75
2022/06/14 08:11:02;;;;;;;3.42;1.50;;;;;;;12.03;91.01;101791.78;5031171;28;20638;-76
2022/06/14 08:13:36;;;;;;;4.30;1.40;;;;;;;12.02;91.73;101780.50;5027076;28;20524;-76
2022/06/14 08:16:07;;;;;;;2.45;1.50;;;;;;;12.00;92.60;101782.13;5029810;28;20107;-76
2022/06/14 08:18:40;;;;;;;2.65;1.33;;;;;;;11.98;93.33;101777.72;5030378;28;20053;-76
2022/06/14 08:21:13;;;;;;;5.25;1.80;;;;;;;12.00;93.95;101782.13;5030116;28;20057;-76
2022/06/14 08:23:50;;;;;;;3.58;1.30;;;;;;;12.02;93.54;101784.81;5030767;28;20578;-76
2022/06/14 08:26:26;;;;;;;3.88;1.33;;;;;;;12.02;93.40;101784.81;5029430;28;20172;-75
2022/06/14 08:29:02;;;;;;;4.93;1.60;;;;;;;12.05;93.21;101787.50;5030160;28;20447;-76
2022/06/14 08:31:37;;;;;;;2.40;1.30;;;;;;;12.00;93.24;101783.84;5035115;28;20534;-76
2022/06/14 08:34:13;;;;;;;5.18;1.70;;;;;;;11.99;93.50;101784.69;5017845;28;20060;-76
2022/06/14 08:36:50;;;;;;;3.38;1.60;;;;;;;12.04;93.08;101780.56;5026381;28;20168;-76
2022/06/14 08:39:26;;;;;;;2.65;1.60;;;;;;;12.07;92.51;101788.47;5030278;28;20054;-76
2022/06/14 08:42:04;;;;;;;3.33;1.20;;;;;;;12.07;92.32;101788.47;5030596;28;20046;-76
2022/06/14 08:44:38;;;;;;;2.75;1.65;;;;;;;12.09;92.59;101787.69;5022639;28;20242;-76
2022/06/14 08:47:29;;;;;;;3.42;1.70;;;;;;;12.10;92.03;101794.66;5023207;28;20103;-76
2022/06/14 08:50:09;;;;;;;2.85;1.27;;;;;;;12.13;92.33;101793.91;5027369;28;20069;-75
2022/06/14 08:53:08;;;;;;;4.72;2.05;;;;;;;12.14;92.43;101800.88;5029074;28;20048;-76
2022/06/14 08:55:58;;;;;;;2.97;1.23;;;;;;;12.14;92.45;101806.94;5024812;28;20506;-76
2022/06/14 08:58:55;;;;;;;3.60;1.50;;;;;;;12.13;93.54;101799.97;5024691;28;20041;-75
2022/06/14 09:01:40;;;;;;;2.72;1.30;;;;;;;12.09;94.75;101790.28;5025984;28;20432;-75
2022/06/14 09:04:46;;;;;;;3.25;1.55;;;;;;;12.06;96.19;101799.69;5033326;28;20057;-76
2022/06/14 09:07:56;;;;;;;4.95;1.70;;;;;;;12.06;96.79;101797.09;5024877;28;20103;-76
2022/06/14 09:10:46;;;;;;;4.50;1.80;;;;;;;12.10;97.08;101798.97;5025907;28;20573;-76
2022/06/14 09:13:38;;;;;;;9.25;1.50;;;;;;;12.07;97.20;101788.47;5034944;28;20060;-76
2022/06/14 09:16:32;;;;;;;5.35;1.83;;;;;;;12.11;97.42;101787.75;5044074;28;20053;-75
2022/06/14 09:19:10;;;;;;;6.05;2.15;;;;;;;12.10;98.50;101798.97;5042839;28;20103;-76
2022/06/14 09:21:55;;;;;;;5.50;1.50;;;;;;;12.07;97.72;101791.97;5048086;28;20136;-76
2022/06/14 09:24:54;;;;;;;3.92;1.85;;;;;;;11.97;99.28;101775.97;5045619;28;20057;-76
2022/06/14 09:27:41;;;;;;;5.15;1.40;;;;;;;12.02;99.30;101782.22;5041113;28;20049;-75
2022/06/14 09:30:33;;;;;;;3.63;1.98;;;;;;;11.97;100.00;101776.84;5047502;28;20095;-76
2022/06/14 09:33:31;;;;;;;4.25;2.20;;;;;;;11.93;100.00;101775.84;5048736;28;20549;-74
2022/06/14 09:36:52;;;;;;;3.15;1.45;;;;;;;11.91;100.00;101774.91;5036838;28;20464;-75
2022/06/14 09:39:52;;;;;;;4.47;2.15;;;;;;;11.83;100.00;101755.50;4996958;28;20506;-75
2022/06/14 09:42:51;;;;;;;4.55;1.90;;;;;;;11.87;100.00;101770.41;5042244;28;20045;-76
2022/06/14 09:45:48;;;;;;;5.32;2.03;;;;;;;11.85;100.00;101756.47;5038298;28;20132;-76
2022/06/14 09:48:48;;;;;;;5.50;2.10;;;;;;;11.82;100.00;101751.16;5043814;28;20048;-75
2022/06/14 09:51:59;;;;;;;4.40;2.53;;;;;;;11.84;100.00;101762.47;5045891;28;20111;-76
2022/06/14 09:55:16;;;;;;;5.90;2.60;;;;;;;11.81;100.00;101753.69;5046208;28;20048;-77
2022/06/14 09:58:11;;;;;;;4.85;2.10;;;;;;;11.77;100.00;101756.97;5046849;28;20048;-76
2022/06/14 10:00:48;;;;;;;5.07;2.85;;;;;;;11.72;100.00;101746.41;5049810;28;20045;-76
2022/06/14 10:03:58;;;;;;;4.53;2.60;;;;;;;11.70;100.00;101738.59;5035138;28;20550;-76
2022/06/14 10:06:48;;;;;;;3.95;2.00;;;;;;;11.70;100.00;101745.47;5027643;28;20053;-77
2022/06/14 10:09:28;;;;;;;5.45;2.67;;;;;;;11.66;100.00;101734.09;5023013;28;20049;-76
2022/06/14 10:12:19;;;;;;;4.07;2.55;;;;;;;11.67;100.00;101734.97;5015845;28;20049;-76
2022/06/14 10:14:57;;;;;;;4.47;2.42;;;;;;;11.64;100.00;101727.09;5028374;28;20095;-76
2022/06/14 10:18:09;;;;;;;3.47;2.22;;;;;;;11.62;100.00;101721.81;5028503;28;20803;-76
2022/06/14 10:20:58;;;;;;;4.47;2.42;;;;;;;11.65;100.00;101715.88;5019349;28;20065;-77
2022/06/14 10:24:01;;;;;;;3.63;2.00;;;;;;;11.63;100.00;101707.16;5028650;28;20053;-76
2022/06/14 10:29:38;;;;;;;5.28;2.20;;;;;;;11.55;100.00;101704.25;5015556;28;19928;-75
2022/06/14 10:32:54;;;;;;;4.28;1.90;;;;;;;11.52;100.00;101720.56;5025643;28;20046;-76
2022/06/14 10:35:32;;;;;;;3.50;1.90;;;;;;;11.52;100.00;101724.84;5012532;28;20045;-76
2022/06/14 10:38:27;;;;;;;4.38;2.17;;;;;;;11.52;100.00;101733.53;5027496;28;20443;-76
2022/06/14 10:41:00;;;;;;;4.13;1.98;;;;;;;11.49;100.00;101729.91;5024412;28;20088;-76
2022/06/14 10:43:39;;;;;;;3.53;1.75;;;;;;;11.45;100.00;101728.91;5027552;28;20048;-76
2022/06/14 10:46:14;;;;;;;3.20;2.03;;;;;;;11.41;100.00;101727.00;5027931;28;20130;-77
2022/06/14 10:49:09;;;;;;;4.22;2.22;;;;;;;11.42;100.00;101723.59;5027916;28;20050;-76
2022/06/14 10:51:55;;;;;;;3.60;1.88;;;;;;;11.42;100.00;101723.59;5021043;28;20045;-76
2022/06/14 10:54:30;;;;;;;2.92;1.73;;;;;;;11.46;100.00;101727.22;5028434;28;20096;-76
2022/06/14 10:57:11;;;;;;;4.43;1.80;;;;;;;11.48;100.00;101729.03;5030645;28;20069;-76
2022/06/14 11:00:01;;;;;;;2.53;1.55;;;;;;;11.48;100.00;101729.03;5027724;28;20045;-76
2022/06/14 11:02:57;;;;;;;5.38;2.05;;;;;;;11.47;100.00;101732.44;5024641;28;20042;-76
2022/06/14 11:05:34;;;;;;;3.55;2.28;;;;;;;11.44;100.00;101721.06;5024007;28;20049;-76
2022/06/14 11:08:25;;;;;;;3.33;1.98;;;;;;;11.43;100.00;101729.66;5029672;28;20095;-77
2022/06/14 11:11:14;;;;;;;3.90;1.92;;;;;;;11.43;100.00;101733.16;5020707;28;20061;-76
2022/06/14 11:13:50;;;;;;;4.35;2.30;;;;;;;11.43;100.00;101725.38;5027923;28;20116;-77
2022/06/14 11:16:29;;;;;;;4.32;1.95;;;;;;;11.45;100.00;101728.91;5028181;28;20103;-76
2022/06/14 11:19:30;;;;;;;2.65;1.35;;;;;;;11.47;100.00;101735.03;5027894;28;20100;-76
2022/06/14 11:22:12;;;;;;;3.50;1.65;;;;;;;11.48;100.00;101730.75;5029709;28;20088;-76
2022/06/14 11:24:53;;;;;;;2.70;1.70;;;;;;;11.47;100.00;101728.97;5026471;28;20048;-77
2022/06/14 11:27:31;;;;;;;4.13;1.65;;;;;;;11.47;100.00;101737.63;5030364;28;20049;-76
2022/06/14 11:30:14;;;;;;;3.55;1.73;;;;;;;11.51;100.00;101734.34;5031550;28;20529;-77
2022/06/14 11:32:53;;;;;;;3.25;2.00;;;;;;;11.50;100.00;101736.88;5030518;28;20076;-77
2022/06/14 11:35:43;;;;;;;3.65;1.90;;;;;;;11.47;100.00;101727.25;5031628;28;20056;-76
2022/06/14 11:38:37;;;;;;;4.72;2.15;;;;;;;11.43;100.00;101735.75;5029873;28;20135;-77
2022/06/14 11:41:11;;;;;;;2.90;1.70;;;;;;;11.41;100.00;101727.00;5023632;28;20049;-76
2022/06/14 11:43:56;;;;;;;4.68;1.48;;;;;;;11.38;100.00;101726.00;5029749;28;20092;-76
2022/06/14 11:46:35;;;;;;;3.45;1.73;;;;;;;11.32;100.00;101722.31;5031168;28;20049;-75
2022/06/14 11:49:09;;;;;;;3.65;2.05;;;;;;;11.32;100.00;101726.63;5021592;28;20056;-77
2022/06/14 11:51:52;;;;;;;3.47;2.00;;;;;;;11.34;100.00;101719.81;5030963;28;20049;-77
2022/06/14 11:54:26;;;;;;;3.15;1.85;;;;;;;11.34;100.00;101717.22;5033946;28;20492;-76
2022/06/14 11:57:05;;;;;;;3.30;1.67;;;;;;;11.37;100.00;101719.06;5008581;28;20053;-77
2022/06/14 12:00:10;;;;;;;2.92;1.42;;;;;;;11.40;100.00;101725.22;5024550;28;20049;-77
2022/06/14 12:02:59;;;;;;;2.83;1.38;;;;;;;11.42;100.00;101718.41;5022194;28;20476;-76
2022/06/14 12:05:40;;;;;;;1.83;1.25;;;;;;;11.44;100.00;101711.59;5028942;28;20522;-77
2022/06/14 12:08:23;;;;;;;3.03;1.75;;;;;;;11.45;100.00;101713.38;5031841;28;20057;-77
2022/06/14 12:10:55;;;;;;;3.42;1.38;;;;;;;11.48;100.00;101713.50;5029652;28;20049;-76
2022/06/14 12:13:41;;;;;;;2.55;1.52;;;;;;;11.53;100.00;101721.44;5030278;28;20053;-76
2022/06/14 12:16:14;;;;;;;5.25;1.60;;;;;;;11.57;100.00;101717.25;5017677;28;20045;-77
2022/06/14 12:18:47;;;;;;;2.65;1.70;;;;;;;11.60;100.00;101722.59;5039522;28;20128;-77
2022/06/14 12:21:25;;;;;;;3.08;1.70;;;;;;;11.56;100.00;101705.13;5029776;28;20508;-77
2022/06/14 12:23:59;;;;;;;3.15;1.67;;;;;;;11.64;100.00;101714.13;5029205;28;20057;-77
2022/06/14 12:26:36;;;;;;;1.83;1.35;;;;;;;11.65;100.00;101719.34;5030581;28;20053;-76